Time;durP1;ratioP1;P1;durP2;ratioP2;P2;SDS_P1;SDS_P2;PMS_P1;PMS_P2;Temp;Humidity;BMP_temperature;BMP_pressure;BME280_temperature;BME280_humidity;BME280_pressure;Samples;Min_cycle;Max_cycle;Signal;HPM_P1;HPM_P2
2024/01/12 00:00:24;;;;;;;29.63;20.13;;;5.30;99.90;;;;;;4887798;29;20203;-58
2024/01/12 00:02:49;;;;;;;26.93;17.27;;;5.30;99.90;;;;;;4878670;29;20192;-58
2024/01/12 00:05:15;;;;;;;28.40;18.83;;;5.30;99.90;;;;;;4881366;29;20714;-58
2024/01/12 00:07:41;;;;;;;31.00;21.10;;;5.30;99.90;;;;;;4872498;29;20189;-58
2024/01/12 00:10:08;;;;;;;26.17;18.43;;;5.20;99.90;;;;;;4878933;29;20409;-58
2024/01/12 00:12:34;;;;;;;30.92;19.92;;;5.30;99.90;;;;;;4881057;29;20272;-58
2024/01/12 00:15:01;;;;;;;32.08;19.83;;;5.20;99.90;;;;;;4865519;29;20278;-58
2024/01/12 00:17:27;;;;;;;31.13;18.98;;;5.20;99.90;;;;;;4883477;29;20631;-58
2024/01/12 00:19:52;;;;;;;30.97;19.90;;;5.20;99.90;;;;;;4880132;29;20189;-58
2024/01/12 00:22:18;;;;;;;28.07;18.87;;;5.20;99.90;;;;;;4890905;29;20247;-58
2024/01/12 00:24:44;;;;;;;26.97;18.03;;;5.20;99.90;;;;;;4868786;29;20437;-59
2024/01/12 00:27:10;;;;;;;30.60;18.37;;;5.20;99.90;;;;;;4880787;29;20195;-58
2024/01/12 00:29:36;;;;;;;27.90;18.77;;;5.20;99.90;;;;;;4866280;29;20278;-58
2024/01/12 00:32:02;;;;;;;24.30;18.00;;;5.10;99.90;;;;;;4890039;29;20277;-58
2024/01/12 00:34:27;;;;;;;31.13;19.67;;;5.20;99.90;;;;;;4872000;29;20189;-58
2024/01/12 00:36:53;;;;;;;28.17;18.33;;;5.10;99.90;;;;;;4863509;29;20399;-58
2024/01/12 00:39:19;;;;;;;29.30;17.90;;;5.20;99.90;;;;;;4886729;29;20647;-59
2024/01/12 00:41:47;;;;;;;28.77;19.42;;;5.20;99.90;;;;;;4878998;29;20504;-59
2024/01/12 00:44:12;;;;;;;33.83;19.75;;;5.30;99.90;;;;;;4879288;29;20268;-58
2024/01/12 00:46:38;;;;;;;30.20;19.73;;;5.20;99.90;;;;;;4870290;29;20642;-58
2024/01/12 00:49:04;;;;;;;28.90;18.23;;;5.20;99.90;;;;;;4882225;29;20262;-58
2024/01/12 00:51:30;;;;;;;29.43;17.80;;;5.30;99.90;;;;;;4880092;29;20398;-59
2024/01/12 00:53:55;;;;;;;30.00;17.90;;;5.30;99.90;;;;;;4881494;29;20187;-59
2024/01/12 00:56:21;;;;;;;28.83;17.97;;;5.30;99.90;;;;;;4892949;29;20636;-58
2024/01/12 00:58:47;;;;;;;31.40;18.53;;;5.30;99.90;;;;;;4862323;29;20184;-62
2024/01/12 01:01:13;;;;;;;31.10;19.50;;;5.30;99.90;;;;;;4893761;29;20446;-58
2024/01/12 01:03:39;;;;;;;29.87;19.53;;;5.30;99.90;;;;;;4893745;29;20187;-58
2024/01/12 01:06:05;;;;;;;34.17;20.60;;;5.20;99.90;;;;;;4873850;29;20769;-59
2024/01/12 01:08:31;;;;;;;34.72;20.50;;;5.30;99.90;;;;;;4862800;29;20439;-58
2024/01/12 01:10:57;;;;;;;30.90;18.70;;;5.20;99.90;;;;;;4882169;29;20231;-58
2024/01/12 01:13:23;;;;;;;26.90;18.07;;;5.20;99.90;;;;;;4878438;29;20376;-58
2024/01/12 01:15:49;;;;;;;29.73;20.83;;;5.20;99.90;;;;;;4877579;29;20827;-58
2024/01/12 01:18:16;;;;;;;31.10;18.77;;;5.20;99.90;;;;;;4887086;29;20424;-58
2024/01/12 01:20:42;;;;;;;31.67;18.60;;;5.20;99.90;;;;;;4864609;29;20462;-58
2024/01/12 01:23:07;;;;;;;35.67;21.87;;;5.20;99.90;;;;;;4878975;29;20186;-59
2024/01/12 01:25:33;;;;;;;30.00;19.13;;;5.20;99.90;;;;;;4878255;29;20194;-58
2024/01/12 01:28:00;;;;;;;33.37;19.10;;;5.20;99.90;;;;;;4878661;29;20187;-59
2024/01/12 01:30:26;;;;;;;29.15;19.80;;;5.20;99.90;;;;;;4882949;29;20641;-58
2024/01/12 01:32:52;;;;;;;33.95;20.40;;;5.20;99.90;;;;;;4876483;29;20187;-59
2024/01/12 01:35:18;;;;;;;31.50;21.07;;;5.20;99.90;;;;;;4862876;29;20634;-58
2024/01/12 01:37:44;;;;;;;32.33;19.43;;;5.10;99.90;;;;;;4895527;29;20270;-58
2024/01/12 01:40:10;;;;;;;28.87;19.67;;;5.10;99.90;;;;;;4860767;29;20471;-58
2024/01/12 01:42:35;;;;;;;29.40;20.10;;;5.20;99.90;;;;;;4878288;29;20217;-59
2024/01/12 01:45:02;;;;;;;29.90;20.80;;;5.20;99.90;;;;;;4894450;29;21049;-58
2024/01/12 01:47:28;;;;;;;28.27;17.98;;;5.20;99.90;;;;;;4893806;29;20204;-59
2024/01/12 01:49:55;;;;;;;36.15;18.75;;;5.20;99.90;;;;;;4865618;29;20642;-59
2024/01/12 01:52:23;;;;;;;28.75;18.08;;;5.20;99.90;;;;;;4874921;29;20184;-58
2024/01/12 01:54:49;;;;;;;29.75;18.00;;;5.20;99.90;;;;;;4894669;29;20209;-58
2024/01/12 01:57:15;;;;;;;30.23;19.02;;;5.20;99.90;;;;;;4889276;29;20227;-59
2024/01/12 01:59:41;;;;;;;35.70;21.05;;;5.20;99.90;;;;;;4875533;29;20573;-58
2024/01/12 02:02:08;;;;;;;30.90;19.80;;;5.20;99.90;;;;;;4877263;29;20723;-59
2024/01/12 02:04:34;;;;;;;32.38;20.17;;;5.10;99.90;;;;;;4887422;29;20199;-58
2024/01/12 02:07:01;;;;;;;34.80;21.05;;;5.10;99.90;;;;;;4865652;29;20207;-59
2024/01/12 02:09:31;;;;;;;37.47;20.10;;;5.10;99.90;;;;;;4896772;29;20172;-58
2024/01/12 02:11:57;;;;;;;43.13;23.52;;;5.20;99.90;;;;;;4896721;29;20270;-59
2024/01/12 02:14:23;;;;;;;39.50;21.07;;;5.20;99.90;;;;;;4883461;29;20275;-59
2024/01/12 02:16:49;;;;;;;37.00;21.35;;;5.20;99.90;;;;;;4899796;29;20419;-59
2024/01/12 02:19:15;;;;;;;36.60;21.00;;;5.20;99.90;;;;;;4887101;29;20609;-58
2024/01/12 02:21:40;;;;;;;39.03;19.47;;;5.20;99.90;;;;;;4881361;29;20216;-58
2024/01/12 02:24:06;;;;;;;41.60;20.77;;;5.20;99.90;;;;;;4881283;29;20309;-59
2024/01/12 02:26:32;;;;;;;36.20;20.10;;;5.20;99.90;;;;;;4884828;29;20540;-58
2024/01/12 02:29:00;;;;;;;42.40;21.37;;;5.10;99.90;;;;;;4882036;29;20190;-59
2024/01/12 02:31:27;;;;;;;44.67;21.33;;;5.20;99.90;;;;;;4891380;29;20529;-59
2024/01/12 02:33:52;;;;;;;34.80;19.85;;;5.20;99.90;;;;;;4897699;29;20207;-59
2024/01/12 02:36:18;;;;;;;37.17;21.10;;;5.10;99.90;;;;;;4882473;29;20233;-58
2024/01/12 02:38:49;;;;;;;40.77;21.87;;;5.20;99.90;;;;;;4891934;29;20245;-58
2024/01/12 02:41:15;;;;;;;41.75;22.30;;;5.20;99.90;;;;;;4880401;29;20268;-58
2024/01/12 02:43:41;;;;;;;43.47;22.43;;;5.20;99.90;;;;;;4881218;29;20180;-58
2024/01/12 02:46:06;;;;;;;39.10;21.63;;;5.10;99.90;;;;;;4888328;29;20407;-59
2024/01/12 02:48:32;;;;;;;45.27;23.20;;;5.20;99.90;;;;;;4884967;29;20209;-58
2024/01/12 02:50:58;;;;;;;38.93;20.80;;;5.30;99.90;;;;;;4896764;29;20270;-59
2024/01/12 02:53:23;;;;;;;39.40;21.23;;;5.10;99.90;;;;;;4887217;29;20741;-58
2024/01/12 02:55:49;;;;;;;44.33;21.60;;;5.10;99.90;;;;;;4885982;29;20183;-59
2024/01/12 02:58:15;;;;;;;39.70;19.47;;;5.10;99.90;;;;;;4880089;29;20188;-58
2024/01/12 03:00:41;;;;;;;36.93;20.13;;;5.10;99.90;;;;;;4863683;29;20695;-58
2024/01/12 03:03:06;;;;;;;37.50;20.83;;;5.10;99.90;;;;;;4879838;29;20198;-59
2024/01/12 03:05:32;;;;;;;41.27;20.40;;;5.10;99.90;;;;;;4883841;29;20538;-58
2024/01/12 03:07:58;;;;;;;39.23;20.60;;;5.10;99.90;;;;;;4896971;29;20183;-59
2024/01/12 03:10:24;;;;;;;39.80;21.50;;;5.10;99.90;;;;;;4899304;29;20715;-58
2024/01/12 03:12:49;;;;;;;37.03;20.60;;;5.10;99.90;;;;;;4897611;29;20183;-58
2024/01/12 03:15:15;;;;;;;41.07;21.07;;;5.10;99.90;;;;;;4864573;29;20180;-58
2024/01/12 03:17:41;;;;;;;37.30;19.77;;;5.10;99.90;;;;;;4880132;29;20566;-58
2024/01/12 03:20:08;;;;;;;39.33;20.43;;;5.10;99.90;;;;;;4879584;29;20701;-58
2024/01/12 03:22:35;;;;;;;40.67;20.33;;;5.10;99.90;;;;;;4880334;29;20486;-58
2024/01/12 03:25:01;;;;;;;37.45;21.30;;;5.20;99.90;;;;;;4888088;29;20206;-59
2024/01/12 03:27:27;;;;;;;38.93;21.37;;;5.10;99.90;;;;;;4892980;29;20181;-58
2024/01/12 03:29:53;;;;;;;36.08;19.80;;;5.10;99.90;;;;;;4888949;29;20292;-59
2024/01/12 03:32:21;;;;;;;36.80;20.13;;;5.10;99.90;;;;;;4893586;29;20290;-58
2024/01/12 03:34:47;;;;;;;48.63;21.60;;;5.10;99.90;;;;;;4889988;29;20237;-58
2024/01/12 03:37:13;;;;;;;38.73;20.50;;;5.10;99.90;;;;;;4879596;29;20184;-58
2024/01/12 03:39:38;;;;;;;45.10;22.10;;;5.20;99.90;;;;;;4894440;29;20462;-58
2024/01/12 03:42:04;;;;;;;42.53;21.87;;;5.10;99.90;;;;;;4884218;29;20203;-59
2024/01/12 03:44:30;;;;;;;38.97;20.40;;;5.10;99.90;;;;;;4880035;29;20463;-59
2024/01/12 03:46:56;;;;;;;35.43;20.23;;;5.10;99.90;;;;;;4879427;29;20188;-59
2024/01/12 03:49:22;;;;;;;39.70;21.30;;;5.10;99.90;;;;;;4880569;29;20185;-59
2024/01/12 03:51:53;;;;;;;44.28;21.88;;;5.10;99.90;;;;;;4881452;29;20180;-59
2024/01/12 03:54:25;;;;;;;40.08;21.65;;;5.10;99.90;;;;;;4887008;29;20308;-59
2024/01/12 03:56:52;;;;;;;41.95;20.83;;;5.10;99.90;;;;;;4880810;29;20318;-59
2024/01/12 03:59:18;;;;;;;39.75;20.83;;;5.10;99.90;;;;;;4897630;29;20179;-59
2024/01/12 04:01:44;;;;;;;40.67;21.30;;;5.10;99.90;;;;;;4897112;29;20210;-59
2024/01/12 04:04:10;;;;;;;37.03;20.38;;;5.10;99.90;;;;;;4896426;29;20406;-59
2024/01/12 04:06:37;;;;;;;38.03;19.73;;;5.10;99.90;;;;;;4881591;29;20544;-59
2024/01/12 04:09:03;;;;;;;33.83;19.40;;;5.10;99.90;;;;;;4869069;29;20180;-59
2024/01/12 04:11:28;;;;;;;34.47;18.90;;;5.00;99.90;;;;;;4880577;29;20250;-58
2024/01/12 04:13:55;;;;;;;38.23;21.07;;;5.10;99.90;;;;;;4879451;29;20180;-59
2024/01/12 04:16:20;;;;;;;36.40;19.02;;;5.10;99.90;;;;;;4878929;29;20176;-59
2024/01/12 04:18:46;;;;;;;37.27;20.70;;;5.10;99.90;;;;;;4862662;29;20709;-59
2024/01/12 04:21:12;;;;;;;32.00;18.60;;;5.10;99.90;;;;;;4878324;29;20243;-59
2024/01/12 04:23:39;;;;;;;35.95;20.33;;;5.10;99.90;;;;;;4879342;29;20424;-59
2024/01/12 04:26:08;;;;;;;30.25;18.63;;;5.20;99.90;;;;;;4846354;29;20193;-59
2024/01/12 04:28:34;;;;;;;33.63;18.27;;;5.20;99.90;;;;;;4870799;29;20193;-59
2024/01/12 04:31:03;;;;;;;33.23;18.50;;;5.10;99.90;;;;;;4894338;29;20540;-59
2024/01/12 04:33:30;;;;;;;30.20;19.70;;;5.10;99.90;;;;;;4880159;29;20547;-59
2024/01/12 04:35:56;;;;;;;33.45;18.88;;;5.10;99.90;;;;;;4897133;29;20379;-59
2024/01/12 04:38:22;;;;;;;40.63;18.63;;;5.10;99.90;;;;;;4896625;29;20192;-59
2024/01/12 04:40:48;;;;;;;32.73;19.47;;;5.20;99.90;;;;;;4875958;29;20208;-59
2024/01/12 04:43:14;;;;;;;32.63;21.13;;;5.30;99.90;;;;;;4878217;29;20503;-59
2024/01/12 04:45:40;;;;;;;32.60;19.30;;;5.10;99.90;;;;;;4878684;29;20271;-59
2024/01/12 04:48:06;;;;;;;30.60;19.43;;;5.20;99.90;;;;;;4862815;29;20621;-59
2024/01/12 04:50:32;;;;;;;32.80;20.07;;;5.10;99.90;;;;;;4891693;29;20191;-59
2024/01/12 04:52:57;;;;;;;29.53;17.90;;;5.20;99.90;;;;;;4897609;29;20742;-59
2024/01/12 04:55:23;;;;;;;30.37;19.33;;;5.20;99.90;;;;;;4897026;29;20419;-59
2024/01/12 04:57:49;;;;;;;35.63;20.30;;;5.20;99.90;;;;;;4897566;29;20243;-59
2024/01/12 05:00:15;;;;;;;31.83;20.97;;;5.20;99.90;;;;;;4896519;29;20386;-58
2024/01/12 05:02:41;;;;;;;32.35;18.45;;;5.20;99.90;;;;;;4897398;29;20583;-59
2024/01/12 05:05:08;;;;;;;33.90;17.60;;;5.20;99.90;;;;;;4895967;29;20323;-59
2024/01/12 05:07:34;;;;;;;32.15;18.85;;;5.20;99.90;;;;;;4895059;29;20527;-59
2024/01/12 05:10:00;;;;;;;34.13;18.75;;;5.20;99.90;;;;;;4877990;29;20638;-59
2024/01/12 05:12:26;;;;;;;30.57;17.90;;;5.20;99.90;;;;;;4878928;29;20260;-59
2024/01/12 05:14:52;;;;;;;31.00;17.30;;;5.10;99.90;;;;;;4878726;29;20430;-60
2024/01/12 05:17:18;;;;;;;31.70;18.37;;;5.10;99.90;;;;;;4878277;29;20183;-60
2024/01/12 05:19:44;;;;;;;32.33;19.60;;;5.10;99.90;;;;;;4896937;29;20183;-58
2024/01/12 05:22:10;;;;;;;34.67;17.87;;;5.10;99.90;;;;;;4895704;29;20567;-58
2024/01/12 05:24:36;;;;;;;30.07;19.87;;;5.10;99.90;;;;;;4897047;29;20187;-58
2024/01/12 05:27:01;;;;;;;30.93;20.07;;;5.00;99.90;;;;;;4896090;29;20191;-59
2024/01/12 05:29:27;;;;;;;29.87;17.00;;;5.00;99.90;;;;;;4896718;29;20193;-58
2024/01/12 05:31:53;;;;;;;28.40;18.17;;;5.00;99.90;;;;;;4895502;29;20467;-59
2024/01/12 05:34:19;;;;;;;34.77;19.47;;;5.00;99.90;;;;;;4895849;29;20183;-58
2024/01/12 05:36:44;;;;;;;29.67;18.33;;;5.00;99.90;;;;;;4895782;29;20187;-58
2024/01/12 05:39:10;;;;;;;28.40;16.87;;;5.00;99.90;;;;;;4885766;29;20211;-59
2024/01/12 05:41:36;;;;;;;21.63;14.40;;;5.00;99.90;;;;;;4877227;29;20203;-58
2024/01/12 05:44:02;;;;;;;24.47;15.30;;;5.00;99.90;;;;;;4861423;29;20437;-58
2024/01/12 05:46:28;;;;;;;23.00;13.65;;;5.00;99.90;;;;;;4879639;29;20455;-58
2024/01/12 05:48:54;;;;;;;21.57;14.67;;;5.00;99.90;;;;;;4897339;29;20184;-58
2024/01/12 05:51:20;;;;;;;20.58;12.35;;;5.00;99.90;;;;;;4885483;29;20219;-59
2024/01/12 05:53:46;;;;;;;17.20;11.00;;;5.00;99.90;;;;;;4886764;29;20570;-58
2024/01/12 05:56:12;;;;;;;17.47;12.40;;;5.00;99.90;;;;;;4899422;29;20227;-58
2024/01/12 05:58:39;;;;;;;17.17;11.47;;;5.00;99.90;;;;;;4900606;29;20184;-58
2024/01/12 06:01:05;;;;;;;14.30;10.10;;;5.10;99.90;;;;;;4899868;29;20550;-58
2024/01/12 06:03:31;;;;;;;18.47;11.33;;;5.10;99.90;;;;;;4898786;29;20263;-58
2024/01/12 06:05:57;;;;;;;16.70;9.90;;;5.10;99.90;;;;;;4900530;29;20195;-58
2024/01/12 06:08:23;;;;;;;16.77;11.48;;;5.10;99.90;;;;;;4891210;29;20313;-58
2024/01/12 06:10:50;;;;;;;16.35;9.68;;;5.10;99.90;;;;;;4881686;29;20183;-58
2024/01/12 06:13:17;;;;;;;13.25;8.38;;;5.00;99.90;;;;;;4881572;29;20180;-58
2024/01/12 06:15:43;;;;;;;11.80;8.75;;;5.00;99.90;;;;;;4885423;29;20270;-58
2024/01/12 06:18:08;;;;;;;14.70;8.13;;;5.00;99.90;;;;;;4897788;29;20783;-59
2024/01/12 06:20:34;;;;;;;11.03;7.63;;;5.00;99.90;;;;;;4882341;29;20958;-58
2024/01/12 06:23:00;;;;;;;10.98;8.85;;;5.00;99.90;;;;;;4884933;29;20188;-58
2024/01/12 06:25:27;;;;;;;10.13;8.87;;;5.00;99.90;;;;;;4880797;29;20183;-58
2024/01/12 06:27:53;;;;;;;12.10;7.95;;;5.00;99.90;;;;;;4881410;29;20430;-58
2024/01/12 06:30:19;;;;;;;14.30;9.43;;;5.00;99.90;;;;;;4892350;29;20191;-58
2024/01/12 06:32:44;;;;;;;14.70;9.83;;;4.90;99.90;;;;;;4898989;29;20187;-58
2024/01/12 06:35:11;;;;;;;15.27;8.67;;;5.00;99.90;;;;;;4898835;29;20267;-58
2024/01/12 06:37:38;;;;;;;16.33;10.07;;;5.00;99.90;;;;;;4899810;29;20179;-58
2024/01/12 06:40:04;;;;;;;13.48;8.82;;;5.00;99.90;;;;;;4851725;29;20192;-58
2024/01/12 06:42:31;;;;;;;13.20;9.10;;;5.00;99.90;;;;;;4893344;29;20216;-58
2024/01/12 06:44:58;;;;;;;14.68;11.10;;;5.10;99.90;;;;;;4873347;29;20236;-58
2024/01/12 06:47:23;;;;;;;13.48;11.35;;;5.10;99.90;;;;;;4898885;29;20180;-57
2024/01/12 06:49:49;;;;;;;14.57;8.77;;;5.10;99.90;;;;;;4898027;29;20626;-57
2024/01/12 06:52:15;;;;;;;15.83;10.43;;;5.10;99.90;;;;;;4881010;29;20274;-58
2024/01/12 06:54:44;;;;;;;15.30;10.30;;;5.10;99.90;;;;;;4899638;29;20176;-58
2024/01/12 06:57:10;;;;;;;12.63;8.88;;;5.20;99.90;;;;;;4898139;29;20298;-58
2024/01/12 06:59:36;;;;;;;13.55;10.40;;;5.20;99.90;;;;;;4899402;29;20180;-58
2024/01/12 07:02:02;;;;;;;12.30;7.47;;;5.30;99.90;;;;;;4895349;29;20214;-58
2024/01/12 07:04:28;;;;;;;13.20;8.93;;;5.30;99.90;;;;;;4898336;29;20430;-58
2024/01/12 07:06:53;;;;;;;11.00;8.50;;;5.20;99.90;;;;;;4899143;29;20764;-58
2024/01/12 07:09:19;;;;;;;12.73;9.40;;;5.30;99.90;;;;;;4898233;29;20224;-58
2024/01/12 07:11:45;;;;;;;12.83;8.20;;;5.30;99.90;;;;;;4896636;29;20203;-58
2024/01/12 07:14:15;;;;;;;15.35;10.07;;;5.30;99.90;;;;;;4879907;29;20381;-60
2024/01/12 07:16:41;;;;;;;11.77;9.10;;;5.30;99.90;;;;;;4880483;29;20248;-58
2024/01/12 07:19:07;;;;;;;13.13;8.77;;;5.20;99.90;;;;;;4880277;29;20639;-59
2024/01/12 07:21:36;;;;;;;13.90;9.60;;;5.20;99.90;;;;;;4889059;29;20209;-59
2024/01/12 07:24:02;;;;;;;12.18;8.60;;;5.20;99.90;;;;;;4898717;29;20406;-59
2024/01/12 07:26:28;;;;;;;10.32;8.48;;;5.20;99.90;;;;;;4898287;29;20172;-59
2024/01/12 07:28:54;;;;;;;9.00;6.97;;;5.20;99.90;;;;;;4897654;29;20309;-58
2024/01/12 07:31:20;;;;;;;12.10;8.30;;;5.20;99.90;;;;;;4890635;29;20528;-58
2024/01/12 07:33:46;;;;;;;13.90;9.40;;;5.20;99.90;;;;;;4897863;29;20194;-58
2024/01/12 07:36:12;;;;;;;12.13;8.77;;;5.30;99.90;;;;;;4893106;29;20191;-58
2024/01/12 07:38:37;;;;;;;11.60;8.10;;;5.20;99.90;;;;;;4891462;29;20182;-58
2024/01/12 07:41:03;;;;;;;10.77;7.40;;;5.30;99.90;;;;;;4893899;29;20294;-58
2024/01/12 07:43:30;;;;;;;12.63;7.10;;;5.30;99.90;;;;;;4897769;29;20187;-58
2024/01/12 07:45:59;;;;;;;9.30;8.40;;;5.30;99.90;;;;;;4898849;29;20398;-58
2024/01/12 07:48:25;;;;;;;8.43;7.57;;;5.20;99.90;;;;;;4892054;29;20566;-58
2024/01/12 07:50:51;;;;;;;8.95;8.02;;;5.40;99.90;;;;;;4883100;29;20460;-60
2024/01/12 07:53:17;;;;;;;8.33;6.50;;;5.30;99.90;;;;;;4878649;29;20188;-58
2024/01/12 07:55:42;;;;;;;7.33;6.50;;;5.30;99.90;;;;;;4879664;29;20180;-62
2024/01/12 07:58:08;;;;;;;7.33;6.43;;;5.20;99.90;;;;;;4886647;29;20195;-60
2024/01/12 08:00:34;;;;;;;6.60;5.70;;;5.30;99.90;;;;;;4897052;29;20175;-57
2024/01/12 08:03:00;;;;;;;9.10;6.10;;;5.40;99.90;;;;;;4898342;29;20183;-58
2024/01/12 08:05:25;;;;;;;7.87;6.63;;;5.20;99.90;;;;;;4893043;29;20241;-57
2024/01/12 08:07:51;;;;;;;6.70;5.97;;;5.20;99.90;;;;;;4897813;29;20176;-60
2024/01/12 08:10:18;;;;;;;9.70;6.60;;;5.20;99.90;;;;;;4896163;29;20682;-60
2024/01/12 08:12:48;;;;;;;6.68;6.07;;;5.20;99.90;;;;;;4871117;29;20243;-59
2024/01/12 08:15:14;;;;;;;8.23;7.38;;;5.10;99.90;;;;;;4875159;29;20183;-60
2024/01/12 08:17:40;;;;;;;10.15;8.18;;;5.10;99.90;;;;;;4898263;29;20243;-59
2024/01/12 08:20:06;;;;;;;8.20;5.93;;;5.00;99.90;;;;;;4892872;29;20184;-60
2024/01/12 08:22:32;;;;;;;9.52;8.52;;;5.00;99.90;;;;;;4886551;29;20289;-61
2024/01/12 08:24:58;;;;;;;8.00;5.97;;;5.00;99.90;;;;;;4896235;29;20654;-61
2024/01/12 08:27:24;;;;;;;8.30;7.50;;;5.00;99.90;;;;;;4870372;29;20426;-59
2024/01/12 08:29:50;;;;;;;8.87;8.07;;;5.10;99.90;;;;;;4886117;29;20187;-59
2024/01/12 08:32:16;;;;;;;10.47;7.53;;;5.00;99.90;;;;;;4892659;29;20406;-59
2024/01/12 08:34:42;;;;;;;9.77;7.10;;;5.10;99.90;;;;;;4875727;29;20943;-59
2024/01/12 08:37:08;;;;;;;8.80;7.90;;;5.10;99.90;;;;;;4897541;29;20236;-59
2024/01/12 08:39:34;;;;;;;12.47;8.90;;;5.20;99.90;;;;;;4896937;29;20235;-59
2024/01/12 08:41:59;;;;;;;9.75;8.13;;;5.20;99.90;;;;;;4897681;29;20438;-59
2024/01/12 08:44:25;;;;;;;11.77;8.23;;;5.30;99.90;;;;;;4896649;29;20544;-59
2024/01/12 08:46:53;;;;;;;9.93;8.13;;;5.20;99.90;;;;;;4865694;29;20190;-59
2024/01/12 08:49:19;;;;;;;10.23;7.57;;;5.20;99.90;;;;;;4879901;29;20191;-59
2024/01/12 08:51:46;;;;;;;9.98;7.18;;;5.20;99.90;;;;;;4897266;29;20191;-59
2024/01/12 08:54:12;;;;;;;10.45;8.52;;;5.20;99.90;;;;;;4890445;29;20587;-59
2024/01/12 08:56:37;;;;;;;9.30;7.85;;;5.20;99.90;;;;;;4895687;29;20237;-59
2024/01/12 08:59:03;;;;;;;10.07;7.53;;;5.10;99.90;;;;;;4897452;29;20171;-59
2024/01/12 09:01:29;;;;;;;8.17;7.43;;;5.10;99.90;;;;;;4866980;29;20279;-59
2024/01/12 09:03:55;;;;;;;10.27;9.27;;;5.10;99.90;;;;;;4886922;29;20272;-59
2024/01/12 09:06:23;;;;;;;10.57;8.90;;;5.10;99.90;;;;;;4871991;29;20647;-59
2024/01/12 09:08:50;;;;;;;10.15;8.00;;;5.10;99.90;;;;;;4873365;29;20212;-60
2024/01/12 09:11:16;;;;;;;12.07;10.88;;;5.10;99.90;;;;;;4865093;29;20542;-59
2024/01/12 09:13:42;;;;;;;13.07;8.50;;;5.10;99.90;;;;;;4889855;29;20188;-59
2024/01/12 09:16:09;;;;;;;11.13;8.83;;;5.00;99.90;;;;;;4878299;29;20515;-59
2024/01/12 09:18:35;;;;;;;14.02;11.40;;;5.00;99.90;;;;;;4895343;29;20203;-59
2024/01/12 09:21:01;;;;;;;13.60;9.27;;;5.00;99.90;;;;;;4880441;29;20203;-59
2024/01/12 09:23:26;;;;;;;11.87;8.87;;;5.00;99.90;;;;;;4879945;29;20431;-60
2024/01/12 09:25:54;;;;;;;11.80;9.60;;;5.00;99.90;;;;;;4897507;29;20400;-59
2024/01/12 09:28:20;;;;;;;12.23;10.40;;;5.00;99.90;;;;;;4896838;29;20210;-60
2024/01/12 09:30:47;;;;;;;11.38;9.32;;;5.10;99.90;;;;;;4897334;29;20286;-59
2024/01/12 09:33:15;;;;;;;12.15;10.48;;;5.00;99.90;;;;;;4897458;29;20185;-59
2024/01/12 09:35:41;;;;;;;10.98;9.68;;;5.10;99.90;;;;;;4897404;29;20671;-59
2024/01/12 09:38:07;;;;;;;14.33;9.27;;;5.00;99.90;;;;;;4897421;29;20203;-59
2024/01/12 09:40:33;;;;;;;11.70;8.93;;;5.00;99.90;;;;;;4896727;29;20178;-59
2024/01/12 09:43:00;;;;;;;13.38;10.35;;;4.90;99.90;;;;;;4897080;29;20398;-59
2024/01/12 09:45:26;;;;;;;13.80;10.05;;;4.80;99.90;;;;;;4896792;29;20175;-59
2024/01/12 09:47:53;;;;;;;14.40;12.88;;;4.80;99.90;;;;;;4897445;29;20182;-59
2024/01/12 09:50:22;;;;;;;16.75;11.52;;;4.90;99.90;;;;;;4895575;29;20535;-59
2024/01/12 09:52:51;;;;;;;16.30;11.90;;;4.90;99.90;;;;;;4897300;29;20176;-59
2024/01/12 09:55:17;;;;;;;14.25;9.43;;;4.90;99.90;;;;;;4896834;29;20315;-60
2024/01/12 09:57:46;;;;;;;14.73;11.48;;;5.00;99.90;;;;;;4897440;29;20235;-59
2024/01/12 10:00:17;;;;;;;14.95;11.07;;;5.00;99.90;;;;;;4897244;29;20262;-59
2024/01/12 10:02:43;;;;;;;13.30;10.27;;;5.00;99.90;;;;;;4879266;29;20680;-59
2024/01/12 10:05:09;;;;;;;13.03;9.10;;;5.10;99.90;;;;;;4897154;29;20195;-59
2024/01/12 10:07:35;;;;;;;13.38;9.25;;;5.10;99.90;;;;;;4896276;29;21011;-59
2024/01/12 10:10:01;;;;;;;12.43;8.93;;;5.10;99.90;;;;;;4880294;29;20262;-59
2024/01/12 10:12:26;;;;;;;13.83;10.10;;;5.10;99.90;;;;;;4896565;29;20267;-60
2024/01/12 10:15:03;;;;;;;15.80;10.20;;;5.20;99.90;;;;;;4880472;29;20307;-59
2024/01/12 10:17:30;;;;;;;16.75;10.68;;;5.20;99.90;;;;;;4896593;29;20169;-59
2024/01/12 10:19:56;;;;;;;13.85;10.07;;;5.30;99.90;;;;;;4897094;29;20659;-59
2024/01/12 10:22:22;;;;;;;15.27;10.40;;;5.20;99.90;;;;;;4879748;29;20266;-59
2024/01/12 10:25:03;;;;;;;16.88;11.18;;;5.30;99.90;;;;;;4896671;29;20195;-59
2024/01/12 10:27:29;;;;;;;18.95;11.52;;;5.40;99.90;;;;;;4894741;29;20573;-59
2024/01/12 10:29:57;;;;;;;17.48;11.68;;;5.20;99.90;;;;;;4897081;29;20199;-60
2024/01/12 10:32:24;;;;;;;22.85;14.35;;;5.20;99.90;;;;;;4895957;29;20192;-60
2024/01/12 10:34:52;;;;;;;20.48;14.90;;;5.20;99.90;;;;;;4900155;29;20187;-59
2024/01/12 10:37:19;;;;;;;20.75;14.20;;;5.20;99.90;;;;;;4900266;29;20342;-60
2024/01/12 10:39:49;;;;;;;19.90;13.18;;;5.30;99.90;;;;;;4883371;29;20537;-59
2024/01/12 10:42:16;;;;;;;17.40;11.18;;;5.30;99.90;;;;;;4883394;29;20328;-59
2024/01/12 10:44:44;;;;;;;21.95;13.95;;;5.30;99.90;;;;;;4899627;29;20187;-59
2024/01/12 10:47:20;;;;;;;20.10;12.93;;;5.30;99.90;;;;;;4900455;29;20235;-59
2024/01/12 10:50:04;;;;;;;21.77;16.00;;;5.30;99.90;;;;;;4886151;29;20191;-59
2024/01/12 10:52:54;;;;;;;21.55;13.93;;;5.30;99.90;;;;;;4890173;29;20192;-60
2024/01/12 10:55:22;;;;;;;21.55;12.98;;;5.30;99.90;;;;;;4880390;29;20187;-60
2024/01/12 10:57:48;;;;;;;20.80;13.43;;;5.30;99.90;;;;;;4864347;29;20232;-59
2024/01/12 11:00:14;;;;;;;20.43;14.90;;;5.30;99.90;;;;;;4881094;29;20180;-60
2024/01/12 11:02:41;;;;;;;24.48;15.18;;;5.30;99.90;;;;;;4898800;29;20478;-59
2024/01/12 11:05:08;;;;;;;24.38;15.07;;;5.30;99.90;;;;;;4900014;29;20185;-59
2024/01/12 11:07:35;;;;;;;27.05;14.02;;;5.40;99.90;;;;;;4897172;29;20275;-59
2024/01/12 11:10:01;;;;;;;23.23;13.73;;;5.50;99.90;;;;;;4897775;29;20244;-59
2024/01/12 11:12:31;;;;;;;20.38;14.70;;;5.40;99.90;;;;;;4899165;29;20186;-60
2024/01/12 11:14:57;;;;;;;24.30;14.13;;;5.40;99.90;;;;;;4898377;29;20278;-59
2024/01/12 11:17:30;;;;;;;27.10;15.30;;;5.40;99.90;;;;;;4898708;29;20263;-60
2024/01/12 11:20:10;;;;;;;23.75;13.68;;;5.30;99.90;;;;;;4899704;29;20391;-59
2024/01/12 11:22:44;;;;;;;23.00;14.68;;;5.30;99.90;;;;;;4898720;29;20207;-59
2024/01/12 11:25:12;;;;;;;27.45;14.70;;;5.30;99.90;;;;;;4899946;29;20175;-60
2024/01/12 11:27:40;;;;;;;30.25;15.98;;;5.30;99.90;;;;;;4898760;29;20211;-61
2024/01/12 11:30:09;;;;;;;25.35;14.35;;;5.30;99.90;;;;;;4900507;29;20203;-59
2024/01/12 11:32:35;;;;;;;25.33;15.25;;;5.20;99.90;;;;;;4917647;29;20187;-59
2024/01/12 11:35:18;;;;;;;28.73;13.27;;;5.30;99.90;;;;;;4901439;29;20183;-59
2024/01/12 11:38:07;;;;;;;27.88;15.85;;;5.20;99.90;;;;;;4917530;29;20179;-59
2024/01/12 11:40:34;;;;;;;24.52;15.05;;;5.30;99.90;;;;;;4903282;29;20656;-59
2024/01/12 11:43:00;;;;;;;26.27;16.08;;;5.30;99.90;;;;;;4918161;29;20234;-60
2024/01/12 11:45:27;;;;;;;25.63;13.85;;;5.30;99.90;;;;;;4900247;29;20174;-60
2024/01/12 11:47:56;;;;;;;28.33;15.38;;;5.40;99.90;;;;;;4917899;29;20176;-60
2024/01/12 11:50:27;;;;;;;24.33;14.52;;;5.40;99.90;;;;;;4917812;29;20187;-58
2024/01/12 11:52:57;;;;;;;26.33;15.02;;;5.40;99.90;;;;;;4918212;29;20186;-58
2024/01/12 11:55:24;;;;;;;23.58;15.18;;;5.40;99.90;;;;;;4891348;29;20185;-59
2024/01/12 11:57:51;;;;;;;23.50;14.20;;;5.40;99.90;;;;;;4886191;29;20231;-60
2024/01/12 12:00:17;;;;;;;26.20;17.73;;;5.50;99.90;;;;;;4885335;29;20468;-60
2024/01/12 12:02:43;;;;;;;26.80;16.38;;;5.50;99.90;;;;;;4896911;29;20658;-59
2024/01/12 12:05:09;;;;;;;28.30;17.07;;;5.50;99.90;;;;;;4865682;29;20275;-59
2024/01/12 12:07:38;;;;;;;31.13;18.85;;;5.60;99.90;;;;;;4883226;29;20193;-60
2024/01/12 12:10:05;;;;;;;27.60;16.13;;;5.60;99.90;;;;;;4881982;29;20185;-59
2024/01/12 12:12:31;;;;;;;25.83;14.95;;;5.60;99.90;;;;;;4888750;29;20184;-60
2024/01/12 12:15:08;;;;;;;27.83;17.90;;;5.60;99.90;;;;;;4885889;29;20187;-60
2024/01/12 12:17:40;;;;;;;28.38;16.50;;;5.60;99.90;;;;;;4879995;29;20426;-59
2024/01/12 12:20:13;;;;;;;30.77;18.33;;;5.60;99.90;;;;;;4888069;29;20564;-59
2024/01/12 12:22:40;;;;;;;31.53;17.73;;;5.70;99.90;;;;;;4863215;29;20848;-60
2024/01/12 12:25:16;;;;;;;30.73;17.10;;;5.70;99.90;;;;;;4892099;29;20468;-60
2024/01/12 12:27:44;;;;;;;28.50;17.55;;;5.70;99.90;;;;;;4894262;29;20187;-60
2024/01/12 12:30:12;;;;;;;31.75;16.52;;;5.70;99.90;;;;;;4898203;29;20176;-59
2024/01/12 12:32:38;;;;;;;30.07;16.50;;;5.70;99.90;;;;;;4876065;29;20331;-59
2024/01/12 12:35:23;;;;;;;33.43;18.33;;;5.70;99.90;;;;;;4865573;29;21030;-63
2024/01/12 12:37:51;;;;;;;29.92;17.38;;;5.70;99.90;;;;;;4887417;29;20895;-60